Record high temperature 100.8°F Record low temperature -75.5°F Record high gust 121.0 mph Record high average 61.8 mph Record daily rain 2.61 in. Record low windchill -106.6°F Record high barometer 31.889 in. Record low barometer 23.642 in.
Daily high pressure 30.005 in. Daily low pressure 29.965 in. Daily low windchill 33.0°F Daily high heat index 42.2°F Daily high gust speed 19.9 mph NNW Daily high average speed 13.7 mph N
Weather Data
LAST READING AT TIME: 2:30 AM DATE: April 24 2014, time of next update: 02:40 am
Current WeatherNight time/Dry Current Temperature 38.3°F (3.5°C), Apparent temp 36.1°F
Maximum Temperature (since midnight)42.2°F at: 12:00 AM Minimum Temperature (since midnight)38.3°F at: 2:29 AM
Average windspeed (ten minute)0.3 mph Wind Direction (ten minute)NW (304°)
Windchill Temperature 38.3°F Maximum Gust (last hour)18.9 mph at: 1:33 AM
Maximum Gust (since midnight)19.9 mph at: 12:26 AM Maximum 1 minute average (since midnight)13.7 mph at: 12:12 AM
Rainfall (last hour)0.00 in. (0.0 mm) Rainfall (since midnight)0.00 in. (0.0 mm) ---
Rainfall This month 0.79 in. (20.0 mm) Rainfall To date this year 1.67 in. (42.5 mm)
Maximum rain per minute (last hour)0.00 in/min Maximum rain per hour (last 6 hours)0.00 in/hour
Yesterdays rainfall 0.00 in DewPoint 34.8°F (Wet Bulb :36.9°F )
Humidity 87 %, Humidex 35.1°F Barometer corrected to msl30.004 in. (1016.1 hPa)
Pressure change +0.01 in. (last hour) Trend (last hour)STEADY
Pressure change (last 12 hours)+0.30 in Pressure change (last 6 hours)+0.17 in

This page is updated from recent data collected by a DAVIS WMII weather station Use the Reload or Refresh facility on your browser to retrieve the latest data.


Click here for the last 24 hour graph
Click here for the last 48 hour graph
Click here for the last 72 hour graph
Click here for the month to date graph


Weather report/warning/Metars

COLORADO SPRINGS MUNI, CO, United States (KCOS) 38-49N 104-43W 1856M
Apr 24, 2014 - 03:54 AM EDT / 2014.04.24 0754 UTC
Wind: from the NNW (330 degrees) at 8 MPH (7 KT):0
Visibility: 10 mile(s):0
Sky conditions: partly cloudy
Temperature: 37.9 F (3.3 C)
Dew Point: 30.0 F (-1.1 C)
Relative Humidity: 72%
Pressure (altimeter): 29.97 in. Hg (1014 hPa)
ob: KCOS 240754Z 33007KT 10SM FEW020 FEW050 SCT160 03/M01 A2997 RMK AO2 SLP098 T00331011
cycle: 8
Air Force Academy, CO, United States (KAFF) 38-58N 104-49W 1999M
Apr 24, 2014 - 03:58 AM EDT / 2014.04.24 0758 UTC
Wind: from the WNW (300 degrees) at 8 MPH (7 KT):0
Visibility: 10 mile(s):0
Sky conditions: clear
Precipitation last hour: A trace
Temperature: 33.8 F (1.0 C)
Windchill: 26 F (-3 C):1
Dew Point: 33.3 F (0.7 C)
Relative Humidity: 97%
Pressure (altimeter): 29.97 in. Hg (1014 hPa)
ob: KAFF 240758Z AUTO 30007KT 10SM CLR 01/01 A2997 RMK AO2 SNE0709RAB0709E0725 SLP101 P0000 T00100007
cycle: 8
Fort Carson, CO, United States (KFCS) 38-42N 104-46W 1789M
Apr 24, 2014 - 03:58 AM EDT / 2014.04.24 0758 UTC
Wind: from the NNW (340 degrees) at 16 MPH (14 KT):0
Visibility: 10 mile(s):0
Sky conditions: clear
Temperature: 37.9 F (3.3 C)
Dew Point: 31.6 F (-0.2 C)
Relative Humidity: 77%
Pressure (altimeter): 29.95 in. Hg (1014 hPa)
ob: KFCS 240758Z AUTO 34014KT 10SM CLR 03/00 A2995 RMK AO2 SLP123 T00331002 
cycle: 8



The data is logged at two minute intervals, but there is data recorded every minute. Best viewed in 800 x 600 and True colour.

Use the RELOAD facility on your browser to retrieve the latest data.

Click here for a daily update of the averages/extremes to date for the month
Created by "Weather Display" software version 10.37R Build 78 at this start time/date 08:20 am 4/11/2014